Harrison Township, Michigan
Current Conditions -  °F | °C
As of 12:55 PM on Saturday 25 Oct 2014 (Local Time) from KMTC Reporting Station
Overcast Overcast  
Wind Chill: 16°   Ceiling: 2000
Heat Index: 16°   Visibility: 10mi
Dew Point: 12°   Wind: 13mph
Humidity: 76%   Direction: 280°W
Pressure: 29.75"   Gusts: NA
Location:  42.58°N, 82.83°W
Report Text: KMTC 251655Z 28011KT 10SM OVC020 16/12 A2975 RMK SLP082 T01610118
Loading
Personal Weather Stations






























Interactive Weather Map
Tropical Storm Tracking
New forecast layout! Learn more

10-Day Weather Forecast

Advertisements
Track Severe Weather on mobile